createdAt,value
2019-05-07T00:01:02.864Z,61.92
2019-05-07T00:03:28.977Z,62.00
2019-05-07T00:05:54.835Z,62.01
2019-05-07T00:08:22.774Z,61.98
2019-05-07T00:10:48.615Z,61.95
2019-05-07T00:13:14.464Z,61.90
2019-05-07T00:15:41.916Z,61.82
2019-05-07T00:18:07.998Z,61.74
2019-05-07T00:20:33.871Z,61.72
2019-05-07T00:22:59.892Z,61.71
2019-05-07T00:25:25.823Z,61.80
2019-05-07T00:27:52.291Z,61.96
2019-05-07T00:30:18.418Z,61.92
2019-05-07T00:32:44.439Z,61.97
2019-05-07T00:35:17.932Z,61.98
2019-05-07T00:37:46.019Z,61.96
2019-05-07T00:40:13.986Z,61.85
2019-05-07T00:42:58.140Z,61.72
2019-05-07T00:45:42.089Z,61.71
2019-05-07T00:48:08.242Z,61.74
2019-05-07T00:50:36.015Z,61.92
2019-05-07T00:53:02.199Z,62.58
2019-05-07T00:55:28.298Z,63.34
2019-05-07T00:57:54.271Z,62.75
2019-05-07T01:00:22.280Z,62.85
2019-05-07T01:02:48.100Z,63.07
2019-05-07T01:05:14.094Z,62.79
2019-05-07T01:07:41.891Z,62.58
2019-05-07T01:10:08.103Z,62.47
2019-05-07T01:12:34.012Z,62.52
2019-05-07T01:14:59.991Z,62.53
2019-05-07T01:17:26.005Z,62.41
2019-05-07T01:19:53.200Z,62.35
2019-05-07T01:22:19.233Z,62.24
2019-05-07T01:24:45.530Z,62.14
2019-05-07T01:27:12.880Z,62.12
2019-05-07T01:29:38.789Z,62.08
2019-05-07T01:32:06.734Z,62.46
2019-05-07T01:34:37.551Z,62.45
2019-05-07T01:37:03.402Z,62.38
2019-05-07T01:39:29.355Z,62.10
2019-05-07T01:41:55.330Z,62.18
2019-05-07T01:44:22.142Z,62.49
2019-05-07T01:46:48.229Z,62.49
2019-05-07T01:49:14.150Z,62.42
2019-05-07T01:51:42.119Z,62.88
2019-05-07T01:54:07.849Z,62.56
2019-05-07T01:56:33.720Z,63.01
2019-05-07T01:58:59.581Z,62.91
2019-05-07T02:01:25.637Z,63.43
2019-05-07T02:03:53.373Z,63.20
2019-05-07T02:06:24.125Z,63.06
2019-05-07T02:09:02.353Z,63.82
2019-05-07T02:11:32.876Z,63.81
2019-05-07T02:13:58.782Z,63.84
2019-05-07T02:16:25.122Z,64.17
2019-05-07T02:18:52.824Z,64.02
2019-05-07T02:21:18.645Z,63.83
2019-05-07T02:23:44.707Z,63.91
2019-05-07T02:26:13.122Z,64.24
2019-05-07T02:28:38.234Z,64.05
2019-05-07T02:31:04.362Z,64.63
2019-05-07T02:33:30.349Z,64.55
2019-05-07T02:35:56.630Z,64.81
2019-05-07T02:38:24.484Z,64.43
2019-05-07T02:40:57.878Z,64.64
2019-05-07T02:43:23.769Z,64.55
2019-05-07T02:45:54.268Z,64.23
2019-05-07T02:48:23.678Z,64.39
2019-05-07T02:51:03.887Z,64.66
2019-05-07T02:53:33.493Z,64.56
2019-05-07T02:56:03.355Z,64.25
2019-05-07T02:58:28.031Z,64.03
2019-05-07T03:00:53.882Z,64.03
2019-05-07T03:03:19.899Z,64.12
2019-05-07T03:05:45.941Z,64.25
2019-05-07T03:08:13.365Z,63.88
2019-05-07T03:10:39.706Z,64.13
2019-05-07T03:13:05.765Z,64.82
2019-05-07T03:15:33.341Z,64.51
2019-05-07T03:17:59.516Z,64.36
2019-05-07T03:20:43.673Z,64.33
2019-05-07T03:23:13.342Z,64.71
2019-05-07T03:25:59.684Z,64.22
2019-05-07T03:28:25.926Z,64.24
2019-05-07T03:30:57.197Z,64.44
2019-05-07T03:33:26.566Z,64.24
2019-05-07T03:35:57.552Z,63.98
2019-05-07T03:38:23.399Z,64.07
2019-05-07T03:40:52.929Z,63.91
2019-05-07T03:43:17.212Z,63.80
2019-05-07T03:45:47.609Z,63.62
2019-05-07T03:48:23.409Z,63.89
2019-05-07T03:50:48.603Z,63.83
2019-05-07T03:53:14.604Z,63.94
2019-05-07T03:55:44.311Z,64.45
2019-05-07T03:58:08.541Z,63.85
2019-05-07T04:00:34.418Z,64.44
2019-05-07T04:03:03.445Z,63.84
2019-05-07T04:05:28.559Z,63.78
2019-05-07T04:07:54.515Z,63.79
2019-05-07T04:10:23.146Z,64.18
2019-05-07T04:12:48.239Z,64.04
2019-05-07T04:15:18.841Z,63.86
2019-05-07T04:17:42.954Z,63.79
2019-05-07T04:20:09.206Z,63.77
2019-05-07T04:22:35.134Z,63.63
2019-05-07T04:25:08.866Z,63.78
2019-05-07T04:27:43.121Z,63.80
2019-05-07T04:30:07.379Z,63.42
2019-05-07T04:32:35.281Z,63.40
2019-05-07T04:35:03.889Z,63.29
2019-05-07T04:37:32.969Z,63.41
2019-05-07T04:39:58.093Z,63.48
2019-05-07T04:42:24.611Z,63.28
2019-05-07T04:44:53.748Z,63.19
2019-05-07T04:47:34.474Z,63.39
2019-05-07T04:49:46.489Z,63.37
2019-05-07T04:52:26.540Z,63.46
2019-05-07T04:54:52.914Z,63.09
2019-05-07T04:57:24.456Z,63.20
2019-05-07T04:59:53.247Z,63.20
2019-05-07T05:02:22.863Z,63.21
2019-05-07T05:04:47.929Z,63.59
2019-05-07T05:07:13.932Z,63.43
2019-05-07T05:09:42.481Z,63.17
2019-05-07T05:12:07.489Z,63.78
2019-05-07T05:14:34.062Z,63.41
2019-05-07T05:17:02.007Z,63.47
2019-05-07T05:19:27.728Z,63.50
2019-05-07T05:22:02.037Z,63.84
2019-05-07T05:24:38.570Z,63.53
2019-05-07T05:27:04.747Z,63.26
2019-05-07T05:29:32.306Z,63.29
2019-05-07T05:31:58.191Z,63.25
2019-05-07T05:34:24.213Z,63.34
2019-05-07T05:36:50.074Z,63.40
2019-05-07T05:39:16.047Z,63.52
2019-05-07T05:41:43.191Z,63.53
2019-05-07T05:44:11.881Z,63.61
2019-05-07T05:46:37.806Z,63.61
2019-05-07T05:49:03.975Z,63.48
2019-05-07T05:51:37.718Z,63.64
2019-05-07T05:54:08.278Z,63.79
2019-05-07T05:56:36.111Z,63.63
2019-05-07T05:59:03.983Z,63.80
2019-05-07T06:01:48.196Z,63.62
2019-05-07T06:04:15.959Z,64.49
2019-05-07T06:07:06.981Z,63.81
2019-05-07T06:09:22.355Z,64.04
2019-05-07T06:11:52.034Z,63.74
2019-05-07T06:14:25.862Z,63.67
2019-05-07T06:16:53.626Z,63.53
2019-05-07T06:19:38.113Z,63.76
2019-05-07T06:22:12.813Z,63.59
2019-05-07T06:24:42.660Z,63.70
2019-05-07T06:27:08.638Z,63.61
2019-05-07T06:29:34.647Z,63.53
2019-05-07T06:32:02.822Z,63.63
2019-05-07T06:34:30.276Z,63.59
2019-05-07T06:36:56.139Z,63.64
2019-05-07T06:39:26.674Z,63.53
2019-05-07T06:41:54.489Z,63.51
2019-05-07T06:44:22.441Z,63.35
2019-05-07T06:46:48.532Z,63.70
2019-05-07T06:49:14.414Z,63.52
2019-05-07T06:51:41.986Z,63.59
2019-05-07T06:54:08.038Z,63.51
2019-05-07T06:56:33.898Z,63.58
2019-05-07T06:59:02.298Z,63.44
2019-05-07T07:01:46.554Z,63.29
2019-05-07T07:04:14.315Z,63.25
2019-05-07T07:06:47.762Z,63.19
2019-05-07T07:09:30.268Z,63.09
2019-05-07T07:12:02.059Z,63.30
2019-05-07T07:14:28.362Z,63.13
2019-05-07T07:16:54.298Z,63.17
2019-05-07T07:19:20.364Z,63.07
2019-05-07T07:21:46.353Z,63.07
2019-05-07T07:24:12.811Z,62.87
2019-05-07T07:26:38.966Z,62.89
2019-05-07T07:29:05.633Z,62.77
2019-05-07T07:31:39.360Z,62.89
2019-05-07T07:34:05.826Z,62.90
2019-05-07T07:36:33.672Z,62.82
2019-05-07T07:39:01.911Z,62.79
2019-05-07T07:41:38.600Z,62.79
2019-05-07T07:44:04.774Z,62.71
2019-05-07T07:46:32.850Z,62.60
2019-05-07T07:49:09.888Z,62.64
2019-05-07T07:51:37.882Z,62.50
2019-05-07T07:53:53.919Z,62.38
2019-05-07T07:56:47.907Z,62.44
2019-05-07T07:59:03.540Z,62.37
2019-05-07T08:01:46.250Z,62.29
2019-05-07T08:04:12.477Z,62.29
2019-05-07T08:06:39.122Z,62.30
2019-05-07T08:09:06.290Z,62.22
2019-05-07T08:11:32.264Z,62.23
2019-05-07T08:13:58.129Z,62.21
2019-05-07T08:16:24.280Z,62.27
2019-05-07T08:18:52.166Z,62.06
2019-05-07T08:21:17.956Z,61.96
2019-05-07T08:23:43.922Z,61.93
2019-05-07T08:26:09.800Z,61.91
2019-05-07T08:28:35.801Z,61.94
2019-05-07T08:31:06.561Z,61.89
2019-05-07T08:33:37.113Z,61.79
2019-05-07T08:36:14.742Z,61.61
2019-05-07T08:38:52.720Z,61.54
2019-05-07T08:41:19.235Z,61.53
2019-05-07T08:43:45.104Z,61.49
2019-05-07T08:46:28.343Z,61.39
2019-05-07T08:48:54.308Z,61.33
2019-05-07T08:51:22.257Z,61.23
2019-05-07T08:53:50.099Z,61.23
2019-05-07T08:56:15.959Z,61.14
2019-05-07T08:58:42.128Z,61.11
2019-05-07T09:01:08.409Z,61.05
2019-05-07T09:03:43.301Z,60.95
2019-05-07T09:06:11.710Z,61.01
2019-05-07T09:08:37.674Z,61.03
2019-05-07T09:11:03.618Z,61.02
2019-05-07T09:13:29.624Z,61.11
2019-05-07T09:15:55.507Z,61.10
2019-05-07T09:18:22.903Z,61.04
2019-05-07T09:20:49.231Z,61.09
2019-05-07T09:23:15.066Z,60.94
2019-05-07T09:25:48.074Z,60.87
2019-05-07T09:28:14.317Z,60.75
2019-05-07T09:30:53.871Z,60.73
2019-05-07T09:33:32.090Z,60.64
2019-05-07T09:35:58.144Z,60.53
2019-05-07T09:38:23.985Z,60.44
2019-05-07T09:40:50.023Z,60.28
2019-05-07T09:43:15.897Z,60.20
2019-05-07T09:45:42.209Z,60.20
2019-05-07T09:48:08.362Z,60.10
2019-05-07T09:50:34.364Z,59.77
2019-05-07T09:53:02.118Z,59.67
2019-05-07T09:55:28.195Z,59.74
2019-05-07T09:57:54.192Z,59.61
2019-05-07T10:00:22.500Z,59.30
2019-05-07T10:02:48.509Z,58.71
2019-05-07T10:05:14.638Z,58.49
2019-05-07T10:07:42.382Z,58.77
2019-05-07T10:10:08.463Z,58.64
2019-05-07T10:12:36.390Z,58.73
2019-05-07T10:15:03.183Z,58.92
2019-05-07T10:17:32.728Z,59.10
2019-05-07T10:19:59.711Z,59.19
2019-05-07T10:22:25.675Z,59.09
2019-05-07T10:24:52.231Z,59.18
2019-05-07T10:27:18.304Z,59.23
2019-05-07T10:29:44.289Z,59.38
2019-05-07T10:32:12.643Z,59.44
2019-05-07T10:34:38.535Z,59.52
2019-05-07T10:37:04.477Z,59.54
2019-05-07T10:39:32.426Z,59.65
2019-05-07T10:41:58.431Z,59.78
2019-05-07T10:44:26.264Z,59.92
2019-05-07T10:47:12.101Z,59.91
2019-05-07T10:49:45.509Z,60.19
2019-05-07T10:52:12.564Z,60.33
2019-05-07T10:54:38.485Z,61.32
2019-05-07T10:57:04.346Z,61.20
2019-05-07T10:59:30.412Z,61.61
2019-05-07T11:02:02.463Z,61.46
2019-05-07T11:04:39.256Z,61.55
2019-05-07T11:06:56.560Z,61.51
2019-05-07T11:09:22.399Z,61.78
2019-05-07T11:11:48.280Z,61.67
2019-05-07T11:14:14.376Z,61.70
2019-05-07T11:16:43.078Z,61.68
2019-05-07T11:19:09.126Z,61.75
2019-05-07T11:21:35.193Z,61.59
2019-05-07T11:24:03.185Z,61.32
2019-05-07T11:26:28.919Z,61.42
2019-05-07T11:28:55.008Z,61.19
2019-05-07T11:31:22.359Z,61.13
2019-05-07T11:33:48.264Z,61.11
2019-05-07T11:36:14.226Z,61.07
2019-05-07T11:38:41.901Z,61.54
2019-05-07T11:41:07.871Z,61.47
2019-05-07T11:43:47.810Z,61.58
2019-05-07T11:46:16.147Z,61.48
2019-05-07T11:48:44.005Z,61.44
2019-05-07T11:51:29.631Z,61.74
2019-05-07T11:54:08.887Z,61.44
2019-05-07T11:56:34.987Z,61.41
2019-05-07T11:59:02.645Z,61.59
2019-05-07T12:01:41.633Z,61.42
2019-05-07T12:03:56.456Z,61.50
2019-05-07T12:06:22.414Z,62.23
2019-05-07T12:08:51.962Z,61.85
2019-05-07T12:11:16.281Z,61.97
2019-05-07T12:13:42.745Z,62.58
2019-05-07T12:16:11.465Z,62.13
2019-05-07T12:18:36.498Z,62.26
2019-05-07T12:21:10.926Z,62.48
2019-05-07T12:23:30.158Z,62.59
2019-05-07T12:25:56.104Z,62.89
2019-05-07T12:28:22.649Z,63.14
2019-05-07T12:30:56.126Z,62.96
2019-05-07T12:33:42.631Z,63.42
2019-05-07T12:36:12.421Z,63.03
2019-05-07T12:38:37.965Z,63.22
2019-05-07T12:41:06.190Z,63.56
2019-05-07T12:43:32.151Z,63.32
2019-05-07T12:45:58.037Z,63.39
2019-05-07T12:48:24.149Z,63.26
2019-05-07T12:50:52.137Z,63.35
2019-05-07T12:53:28.543Z,63.39
2019-05-07T12:55:58.954Z,63.35
2019-05-07T12:58:25.227Z,63.20
2019-05-07T13:01:09.876Z,63.62
2019-05-07T13:03:54.372Z,63.53
2019-05-07T13:06:22.072Z,63.60
2019-05-07T13:08:47.899Z,63.41
2019-05-07T13:11:13.772Z,63.25
2019-05-07T13:13:39.882Z,63.37
2019-05-07T13:16:05.844Z,63.60
2019-05-07T13:18:31.698Z,63.46
2019-05-07T13:20:57.785Z,63.29
2019-05-07T13:23:23.721Z,63.28
2019-05-07T13:25:49.608Z,63.39
2019-05-07T13:28:15.772Z,63.23
2019-05-07T13:30:43.895Z,63.47
2019-05-07T13:33:12.176Z,63.52
2019-05-07T13:35:38.505Z,63.23
2019-05-07T13:38:06.357Z,63.30
2019-05-07T13:40:37.106Z,63.42
2019-05-07T13:43:06.971Z,63.33
2019-05-07T13:45:48.978Z,63.31
2019-05-07T13:48:19.805Z,63.37
2019-05-07T13:50:45.754Z,63.33
2019-05-07T13:53:12.313Z,63.21
2019-05-07T13:55:38.531Z,63.22
2019-05-07T13:58:04.748Z,63.30
2019-05-07T14:00:35.108Z,63.24
2019-05-07T14:03:03.249Z,63.24
2019-05-07T14:05:29.173Z,63.13
2019-05-07T14:07:55.108Z,63.27
2019-05-07T14:10:21.219Z,63.14
2019-05-07T14:12:47.082Z,63.08
2019-05-07T14:15:13.038Z,63.02
2019-05-07T14:17:39.229Z,62.96
2019-05-07T14:20:05.384Z,62.98
2019-05-07T14:22:31.853Z,62.99
2019-05-07T14:24:58.050Z,62.92
2019-05-07T14:27:24.031Z,62.79
2019-05-07T14:29:51.529Z,62.81
2019-05-07T14:32:23.246Z,62.89
2019-05-07T14:35:07.555Z,62.98
2019-05-07T14:37:38.415Z,63.13
2019-05-07T14:40:05.095Z,62.90
2019-05-07T14:42:32.946Z,62.78
2019-05-07T14:44:59.156Z,62.78
2019-05-07T14:47:25.128Z,62.91
2019-05-07T14:49:52.968Z,63.17
2019-05-07T14:52:30.170Z,63.59
2019-05-07T14:54:46.830Z,63.32
2019-05-07T14:57:12.920Z,63.29
2019-05-07T14:59:39.109Z,63.41
2019-05-07T15:02:05.415Z,63.39
2019-05-07T15:04:31.276Z,63.08
2019-05-07T15:06:57.542Z,63.01
2019-05-07T15:09:23.534Z,63.25
2019-05-07T15:11:49.558Z,63.44
2019-05-07T15:14:15.548Z,63.38
2019-05-07T15:16:42.717Z,63.45
2019-05-07T15:19:08.858Z,63.35
2019-05-07T15:21:34.962Z,63.64
2019-05-07T15:24:02.332Z,63.68
2019-05-07T15:26:28.336Z,63.86
2019-05-07T15:29:01.948Z,63.67
2019-05-07T15:31:35.753Z,63.71
2019-05-07T15:34:02.973Z,64.59
2019-05-07T15:36:29.263Z,65.12
2019-05-07T15:38:55.152Z,64.88
2019-05-07T15:41:22.796Z,65.21
2019-05-07T15:43:48.993Z,64.83
2019-05-07T15:46:14.837Z,64.75
2019-05-07T15:48:42.017Z,65.27
2019-05-07T15:51:08.189Z,65.29
2019-05-07T15:53:47.870Z,65.58
2019-05-07T15:56:13.935Z,65.32
2019-05-07T15:58:39.894Z,65.24
2019-05-07T16:01:05.858Z,65.10
2019-05-07T16:03:33.816Z,64.96
2019-05-07T16:06:03.531Z,64.88
2019-05-07T16:08:29.214Z,64.59
2019-05-07T16:10:55.276Z,64.43
2019-05-07T16:13:23.179Z,64.20
2019-05-07T16:15:49.053Z,64.22
2019-05-07T16:18:28.703Z,64.28
2019-05-07T16:20:54.534Z,64.47
2019-05-07T16:23:22.045Z,64.40
2019-05-07T16:25:48.070Z,64.43
2019-05-07T16:28:13.943Z,64.86
2019-05-07T16:30:39.790Z,64.68
2019-05-07T16:33:05.749Z,64.48
2019-05-07T16:35:32.173Z,64.56
2019-05-07T16:37:58.210Z,64.21
2019-05-07T16:40:24.373Z,64.53
2019-05-07T16:42:52.365Z,64.34
2019-05-07T16:45:18.088Z,64.66
2019-05-07T16:47:44.155Z,64.47
2019-05-07T16:50:12.937Z,64.37
2019-05-07T16:52:39.143Z,64.30
2019-05-07T16:55:05.316Z,64.77
2019-05-07T16:57:42.346Z,64.56
2019-05-07T17:00:25.065Z,64.38
2019-05-07T17:02:52.834Z,64.50
2019-05-07T17:05:22.720Z,64.94
2019-05-07T17:07:52.123Z,64.93
2019-05-07T17:10:18.281Z,64.80
2019-05-07T17:12:44.723Z,64.76
2019-05-07T17:15:12.385Z,64.89
2019-05-07T17:17:38.538Z,64.99
2019-05-07T17:20:05.122Z,64.91
2019-05-07T17:22:32.250Z,65.25
2019-05-07T17:25:00.218Z,65.16
2019-05-07T17:27:26.114Z,64.94
2019-05-07T17:29:52.156Z,64.84
2019-05-07T17:32:18.090Z,65.29
2019-05-07T17:34:43.965Z,65.22
2019-05-07T17:37:12.503Z,65.04
2019-05-07T17:39:37.652Z,64.94
2019-05-07T17:42:03.617Z,64.82
2019-05-07T17:44:29.765Z,64.86
2019-05-07T17:46:55.621Z,64.84
2019-05-07T17:49:21.900Z,64.77
2019-05-07T17:51:48.094Z,64.63
2019-05-07T17:54:14.053Z,64.49
2019-05-07T17:56:42.143Z,64.55
2019-05-07T17:59:08.123Z,64.59
2019-05-07T18:01:35.991Z,64.44
2019-05-07T18:04:02.951Z,64.59
2019-05-07T18:06:29.494Z,64.71
2019-05-07T18:08:55.353Z,64.66
2019-05-07T18:11:24.098Z,64.51
2019-05-07T18:13:49.007Z,64.40
2019-05-07T18:16:37.808Z,64.45
2019-05-07T18:19:03.982Z,64.38
2019-05-07T18:21:29.974Z,64.44
2019-05-07T18:23:55.979Z,64.36
2019-05-07T18:26:30.476Z,64.37
2019-05-07T18:28:49.634Z,64.36
2019-05-07T18:31:16.330Z,64.27
2019-05-07T18:33:44.220Z,64.18
2019-05-07T18:36:12.087Z,63.98
2019-05-07T18:38:37.937Z,64.19
2019-05-07T18:41:04.057Z,64.36
2019-05-07T18:43:30.041Z,64.33
2019-05-07T18:45:55.900Z,64.33
2019-05-07T18:48:22.401Z,64.27
2019-05-07T18:50:48.397Z,64.26
2019-05-07T18:53:14.367Z,64.25
2019-05-07T18:55:42.204Z,64.21
2019-05-07T18:58:13.213Z,64.22
2019-05-07T19:00:58.933Z,64.24
2019-05-07T19:03:25.446Z,63.91
2019-05-07T19:05:52.031Z,64.11
2019-05-07T19:08:20.144Z,64.17
2019-05-07T19:10:46.179Z,64.16
2019-05-07T19:13:12.166Z,64.35
2019-05-07T19:15:39.078Z,64.29
2019-05-07T19:18:05.062Z,64.22
2019-05-07T19:20:32.667Z,64.12
2019-05-07T19:22:58.870Z,64.13
2019-05-07T19:25:24.761Z,64.11
2019-05-07T19:27:52.534Z,64.15
2019-05-07T19:30:18.702Z,64.35
2019-05-07T19:32:44.587Z,64.31
2019-05-07T19:35:12.371Z,64.25
2019-05-07T19:37:38.437Z,64.25
2019-05-07T19:40:07.307Z,64.29
2019-05-07T19:42:33.252Z,64.27
2019-05-07T19:44:59.312Z,64.30
2019-05-07T19:47:25.493Z,64.23
2019-05-07T19:49:52.442Z,64.23
2019-05-07T19:52:18.470Z,64.27
2019-05-07T19:54:58.053Z,64.20
2019-05-07T19:57:14.201Z,64.26
2019-05-07T19:59:40.317Z,64.21
2019-05-07T20:02:08.204Z,64.18
2019-05-07T20:04:34.191Z,64.28
2019-05-07T20:07:00.291Z,64.20
2019-05-07T20:09:28.039Z,64.25
2019-05-07T20:11:53.896Z,64.18
2019-05-07T20:14:22.129Z,64.27
2019-05-07T20:16:47.604Z,64.15
2019-05-07T20:19:13.552Z,64.15
2019-05-07T20:21:39.596Z,64.09
2019-05-07T20:24:05.567Z,64.06
2019-05-07T20:26:32.644Z,64.07
2019-05-07T20:28:58.946Z,64.07
2019-05-07T20:31:24.932Z,64.20
2019-05-07T20:33:52.982Z,64.31
2019-05-07T20:36:18.645Z,64.11
2019-05-07T20:38:44.618Z,64.23
2019-05-07T20:41:12.463Z,64.21
2019-05-07T20:43:38.563Z,64.21
2019-05-07T20:46:04.428Z,64.23
2019-05-07T20:48:32.350Z,64.15
2019-05-07T20:50:58.077Z,64.11
2019-05-07T20:53:42.376Z,64.20
2019-05-07T20:56:08.496Z,64.18
2019-05-07T20:58:34.345Z,64.19
2019-05-07T21:01:00.254Z,64.17
2019-05-07T21:03:26.154Z,64.24
2019-05-07T21:05:52.999Z,64.26
2019-05-07T21:08:19.628Z,64.32
2019-05-07T21:10:45.726Z,64.24
2019-05-07T21:13:26.763Z,64.51
2019-05-07T21:15:41.763Z,64.45
2019-05-07T21:18:07.468Z,64.19
2019-05-07T21:20:33.431Z,64.22
2019-05-07T21:22:59.525Z,64.38
2019-05-07T21:25:25.542Z,64.44
2019-05-07T21:27:53.091Z,64.45
2019-05-07T21:30:19.172Z,64.68
2019-05-07T21:32:45.287Z,64.58
2019-05-07T21:35:11.339Z,64.72
2019-05-07T21:37:37.207Z,64.67
2019-05-07T21:40:06.440Z,64.74
2019-05-07T21:42:32.441Z,64.99
2019-05-07T21:44:58.299Z,64.93
2019-05-07T21:47:26.209Z,64.87
2019-05-07T21:49:54.851Z,65.04
2019-05-07T21:52:22.031Z,64.89
2019-05-07T21:54:49.389Z,64.78
2019-05-07T21:57:17.121Z,64.80
2019-05-07T21:59:43.246Z,64.77
2019-05-07T22:02:12.663Z,64.77
2019-05-07T22:04:38.880Z,64.62
2019-05-07T22:07:04.733Z,64.55
2019-05-07T22:09:32.883Z,64.48
2019-05-07T22:11:58.645Z,64.52
2019-05-07T22:20:24.679Z,64.59
2019-05-07T22:22:52.112Z,64.57
2019-05-07T22:25:18.136Z,64.57
2019-05-07T22:27:44.218Z,64.54
2019-05-07T22:30:12.581Z,64.54
2019-05-07T22:32:46.172Z,64.58
2019-05-07T22:35:14.033Z,64.59
2019-05-07T22:37:39.894Z,64.55
2019-05-07T22:40:06.614Z,64.58
2019-05-07T22:42:32.781Z,64.51
2019-05-07T22:44:58.929Z,64.49
2019-05-07T22:47:24.956Z,64.53
2019-05-07T22:49:53.215Z,64.61
2019-05-07T22:52:18.638Z,64.58
2019-05-07T22:54:44.784Z,64.63
2019-05-07T22:57:14.223Z,64.66
2019-05-07T22:59:40.091Z,64.64
2019-05-07T23:02:06.414Z,64.62
2019-05-07T23:04:32.652Z,64.50
2019-05-07T23:06:58.512Z,64.50
2019-05-07T23:09:24.574Z,64.58
2019-05-07T23:11:52.617Z,64.62
2019-05-07T23:14:18.114Z,64.55
2019-05-07T23:16:44.072Z,64.56
2019-05-07T23:19:09.904Z,64.55
2019-05-07T23:21:35.849Z,64.49
2019-05-07T23:24:01.874Z,64.43
2019-05-07T23:26:27.749Z,64.40
2019-05-07T23:28:53.582Z,64.44
2019-05-07T23:31:19.750Z,64.44
2019-05-07T23:33:45.596Z,64.43
2019-05-07T23:36:12.922Z,64.44
2019-05-07T23:38:39.124Z,64.47
2019-05-07T23:41:06.991Z,64.46
2019-05-07T23:43:33.059Z,64.48
2019-05-07T23:45:59.147Z,64.40
2019-05-07T23:48:25.021Z,64.36
2019-05-07T23:50:52.541Z,64.39
2019-05-07T23:53:18.654Z,64.41
2019-05-07T23:55:44.557Z,64.38
2019-05-07T23:58:13.883Z,64.38
